Terminal Aerodrome Forecast
Issued by NWS Sterling, VA

Home | Current Version | Previous Version | Text Only | Print | Product List | Glossary On
Versions: 1 2 3 4 5 6 7 8 9 10 11 12 13 14 15 16 17 18 19 20 21 22
000
FTUS41 KLWX 242300 RRA
TAFBWI
TAF
KBWI 242349Z 2500/2606 31005KT P6SM SCT150 SCT250
     FM250500 VRB03KT P6SM BKN110 BKN250
     FM251400 13008KT P6SM BKN110 BKN250
     FM251700 14012KT P6SM SCT050 BKN140
     FM251800 15013KT P6SM SHRA BKN050
     FM252200 15014KT 5SM -SHRA BKN030
     FM260100 20006KT P6SM BKN015
     FM260300 22005KT P6SM BKN060
     FM260500 28011G20KT P6SM SCT060=

USA.gov is the U.S. government's official web portal to all federal, state and local government web resources and services.